createdAt,value
2018-09-12T00:00:12.496Z,0
2018-09-12T00:01:13.174Z,0
2018-09-12T00:02:13.849Z,0
2018-09-12T00:03:14.526Z,0
2018-09-12T00:04:15.203Z,0
2018-09-12T00:05:15.878Z,0
2018-09-12T00:06:16.554Z,0
2018-09-12T00:07:17.230Z,0
2018-09-12T00:08:17.951Z,0
2018-09-12T00:09:18.628Z,0
2018-09-12T00:10:19.304Z,0
2018-09-12T00:11:19.980Z,0
2018-09-12T00:12:20.656Z,0
2018-09-12T00:13:21.330Z,0
2018-09-12T00:14:22.006Z,0
2018-09-12T00:15:22.682Z,0
2018-09-12T00:16:23.360Z,0
2018-09-12T00:17:24.036Z,0
2018-09-12T00:18:24.712Z,0
2018-09-12T00:19:25.388Z,0
2018-09-12T00:20:26.063Z,0
2018-09-12T00:21:26.740Z,0
2018-09-12T00:22:27.414Z,0
2018-09-12T00:23:28.093Z,0
2018-09-12T00:24:28.765Z,0
2018-09-12T00:25:29.443Z,0
2018-09-12T00:26:30.118Z,0
2018-09-12T00:27:30.798Z,0
2018-09-12T00:28:31.515Z,0
2018-09-12T00:29:32.192Z,0
2018-09-12T00:30:32.867Z,0
2018-09-12T00:31:33.543Z,0
2018-09-12T00:32:34.253Z,0
2018-09-12T00:33:34.942Z,0
2018-09-12T00:34:35.658Z,0
2018-09-12T00:35:36.384Z,0
2018-09-12T00:36:37.060Z,0
2018-09-12T00:37:37.782Z,0
2018-09-12T00:38:38.500Z,0
2018-09-12T00:39:39.176Z,0
2018-09-12T00:40:39.901Z,0
2018-09-12T00:41:40.577Z,0
2018-09-12T00:42:41.253Z,0
2018-09-12T00:43:41.939Z,0
2018-09-12T00:44:42.649Z,0
2018-09-12T00:45:43.324Z,0
2018-09-12T00:46:44.043Z,0
2018-09-12T00:47:44.717Z,0
2018-09-12T00:48:45.438Z,0
2018-09-12T00:49:46.155Z,0
2018-09-12T00:50:46.829Z,0
2018-09-12T00:51:47.509Z,0
2018-09-12T00:52:48.221Z,0
2018-09-12T00:53:48.895Z,0
2018-09-12T00:54:49.571Z,0
2018-09-12T00:55:50.245Z,0
2018-09-12T00:56:50.921Z,0
2018-09-12T00:57:51.594Z,0
2018-09-12T00:58:52.270Z,0
2018-09-12T00:59:52.944Z,0
2018-09-12T01:00:53.619Z,0
2018-09-12T01:01:54.297Z,0
2018-09-12T01:02:54.967Z,0
2018-09-12T01:03:55.643Z,0
2018-09-12T01:04:56.317Z,0
2018-09-12T01:05:56.992Z,0
2018-09-12T01:06:57.667Z,0
2018-09-12T01:07:58.339Z,0
2018-09-12T01:08:59.014Z,0
2018-09-12T01:09:59.732Z,0
2018-09-12T01:11:00.409Z,0
2018-09-12T01:12:01.087Z,0
2018-09-12T01:13:01.757Z,0
2018-09-12T01:14:02.432Z,0
2018-09-12T01:15:03.110Z,0
2018-09-12T01:16:03.825Z,0
2018-09-12T01:17:04.499Z,0
2018-09-12T01:18:05.173Z,0
2018-09-12T01:19:05.851Z,0
2018-09-12T01:20:06.522Z,0
2018-09-12T01:21:07.199Z,0
2018-09-12T01:22:07.871Z,0
2018-09-12T01:23:08.555Z,0
2018-09-12T01:24:09.222Z,0
2018-09-12T01:25:09.910Z,0
2018-09-12T01:26:10.615Z,0
2018-09-12T01:27:11.291Z,0
2018-09-12T01:28:11.965Z,0
2018-09-12T01:29:12.639Z,0
2018-09-12T01:30:13.314Z,0
2018-09-12T01:31:13.987Z,0
2018-09-12T01:32:14.661Z,0
2018-09-12T01:33:15.392Z,0
2018-09-12T01:34:16.105Z,0
2018-09-12T01:35:16.780Z,0
2018-09-12T01:36:17.454Z,0
2018-09-12T01:37:18.129Z,0
2018-09-12T01:38:18.803Z,0
2018-09-12T01:39:19.478Z,0
2018-09-12T01:40:20.152Z,0
2018-09-12T01:41:20.827Z,0
2018-09-12T01:42:21.505Z,0
2018-09-12T01:43:22.175Z,0
2018-09-12T01:44:22.852Z,0
2018-09-12T01:45:23.567Z,0
2018-09-12T01:46:24.241Z,0
2018-09-12T01:47:24.919Z,0
2018-09-12T01:48:25.636Z,0
2018-09-12T01:49:26.312Z,0
2018-09-12T01:50:26.983Z,0
2018-09-12T01:51:27.659Z,0
2018-09-12T01:52:28.334Z,0
2018-09-12T01:53:29.011Z,0
2018-09-12T01:54:29.728Z,0
2018-09-12T01:55:30.400Z,0
2018-09-12T01:56:31.076Z,0
2018-09-12T01:57:31.749Z,0
2018-09-12T01:58:32.423Z,0
2018-09-12T01:59:33.097Z,0
2018-09-12T02:00:33.770Z,0
2018-09-12T02:01:34.446Z,0
2018-09-12T02:02:35.120Z,0
2018-09-12T02:03:35.798Z,0
2018-09-12T02:04:36.511Z,0
2018-09-12T02:05:37.190Z,0
2018-09-12T02:06:37.908Z,0
2018-09-12T02:07:38.586Z,0
2018-09-12T02:08:39.257Z,0
2018-09-12T02:09:39.934Z,0
2018-09-12T02:10:40.652Z,0
2018-09-12T02:11:41.279Z,0
2018-09-12T02:12:41.953Z,0
2018-09-12T02:13:42.628Z,0
2018-09-12T02:14:43.299Z,0
2018-09-12T02:15:43.974Z,0
2018-09-12T02:16:44.653Z,0
2018-09-12T02:17:45.371Z,0
2018-09-12T02:18:46.077Z,0
2018-09-12T02:19:46.749Z,0
2018-09-12T02:20:47.422Z,0
2018-09-12T02:21:48.097Z,0
2018-09-12T02:22:48.773Z,0
2018-09-12T02:23:49.491Z,0
2018-09-12T02:24:50.165Z,0
2018-09-12T02:25:50.839Z,0
2018-09-12T02:26:51.514Z,0
2018-09-12T02:27:52.187Z,0
2018-09-12T02:28:52.861Z,0
2018-09-12T02:29:53.535Z,0
2018-09-12T02:30:54.209Z,0
2018-09-12T02:31:54.884Z,0
2018-09-12T02:32:55.557Z,0
2018-09-12T02:33:56.234Z,0
2018-09-12T02:34:56.906Z,0
2018-09-12T02:35:57.580Z,0
2018-09-12T02:36:58.255Z,0
2018-09-12T02:37:58.929Z,0
2018-09-12T02:38:59.655Z,0
2018-09-12T02:40:00.313Z,0
2018-09-12T02:41:00.987Z,0
2018-09-12T02:42:01.660Z,0
2018-09-12T02:43:02.336Z,0
2018-09-12T02:44:03.021Z,0
2018-09-12T02:45:03.729Z,0
2018-09-12T02:46:04.401Z,0
2018-09-12T02:47:05.074Z,0
2018-09-12T02:48:05.751Z,0
2018-09-12T02:49:06.424Z,0
2018-09-12T02:50:07.098Z,0
2018-09-12T02:51:07.771Z,0
2018-09-12T02:52:08.445Z,0
2018-09-12T02:53:09.120Z,0
2018-09-12T02:54:09.793Z,0
2018-09-12T02:55:10.468Z,0
2018-09-12T02:56:11.141Z,0
2018-09-12T02:57:11.813Z,0
2018-09-12T02:58:12.490Z,0
2018-09-12T03:01:44.162Z,0
2018-09-12T03:02:44.838Z,0
2018-09-12T03:03:45.519Z,0
2018-09-12T03:04:46.194Z,0
2018-09-12T03:05:46.914Z,0
2018-09-12T03:06:47.589Z,0
2018-09-12T03:07:48.267Z,0
2018-09-12T03:08:48.940Z,0
2018-09-12T03:09:49.611Z,0
2018-09-12T03:10:50.285Z,0
2018-09-12T03:11:50.960Z,0
2018-09-12T03:12:51.634Z,0
2018-09-12T03:13:52.308Z,0
2018-09-12T03:14:52.982Z,0
2018-09-12T03:15:53.655Z,0
2018-09-12T03:16:54.382Z,0
2018-09-12T03:17:55.057Z,0
2018-09-12T03:18:55.729Z,0
2018-09-12T03:19:56.406Z,0
2018-09-12T03:20:57.243Z,0
2018-09-12T03:21:57.803Z,0
2018-09-12T03:22:58.477Z,0
2018-09-12T03:23:59.154Z,0
2018-09-12T03:24:59.870Z,0
2018-09-12T03:26:00.545Z,0
2018-09-12T03:27:01.218Z,0
2018-09-12T03:28:01.891Z,0
2018-09-12T03:29:02.569Z,0
2018-09-12T03:30:03.240Z,0
2018-09-12T03:31:03.915Z,0
2018-09-12T03:32:04.589Z,0
2018-09-12T03:33:05.265Z,0
2018-09-12T03:34:05.937Z,0
2018-09-12T03:35:06.611Z,0
2018-09-12T03:36:07.287Z,0
2018-09-12T03:37:07.959Z,0
2018-09-12T03:38:08.632Z,0
2018-09-12T03:39:09.354Z,0
2018-09-12T03:40:10.070Z,0
2018-09-12T03:41:10.751Z,0
2018-09-12T03:42:11.418Z,0
2018-09-12T03:43:12.093Z,0
2018-09-12T03:44:12.766Z,0
2018-09-12T03:45:13.441Z,0
2018-09-12T03:46:14.114Z,0
2018-09-12T03:47:14.787Z,0
2018-09-12T03:48:15.462Z,0
2018-09-12T03:49:16.187Z,0
2018-09-12T03:50:16.860Z,0
2018-09-12T03:51:17.534Z,0
2018-09-12T03:52:18.208Z,0
2018-09-12T03:53:18.882Z,0
2018-09-12T03:54:19.557Z,0
2018-09-12T03:55:20.230Z,0
2018-09-12T03:56:20.903Z,0
2018-09-12T03:57:21.578Z,0
2018-09-12T03:58:22.252Z,0
2018-09-12T03:59:22.931Z,0
2018-09-12T04:00:23.599Z,0
2018-09-12T04:01:24.272Z,0
2018-09-12T04:02:24.949Z,0
2018-09-12T04:03:25.622Z,0
2018-09-12T04:04:26.295Z,0
2018-09-12T04:05:26.969Z,0
2018-09-12T04:06:27.642Z,0
2018-09-12T04:07:28.318Z,0
2018-09-12T04:08:28.991Z,0
2018-09-12T04:09:29.668Z,0
2018-09-12T04:10:30.336Z,0
2018-09-12T04:11:31.008Z,0
2018-09-12T04:12:31.719Z,0
2018-09-12T04:13:32.402Z,0
2018-09-12T04:14:33.078Z,0
2018-09-12T04:15:33.793Z,0
2018-09-12T04:16:34.466Z,0
2018-09-12T04:17:35.143Z,4
2018-09-12T04:18:35.816Z,4
2018-09-12T04:19:36.491Z,4
2018-09-12T04:20:37.209Z,0
2018-09-12T04:21:37.883Z,4
2018-09-12T04:22:38.608Z,8
2018-09-12T04:23:39.281Z,4
2018-09-12T04:24:39.955Z,4
2018-09-12T04:25:40.630Z,8
2018-09-12T04:26:41.302Z,8
2018-09-12T04:27:41.977Z,12
2018-09-12T04:28:42.651Z,12
2018-09-12T04:29:43.326Z,16
2018-09-12T04:30:44.003Z,20
2018-09-12T04:31:44.722Z,24
2018-09-12T04:32:45.441Z,24
2018-09-12T04:33:46.114Z,28
2018-09-12T04:34:46.790Z,32
2018-09-12T04:35:47.464Z,40
2018-09-12T04:36:48.138Z,48
2018-09-12T04:37:48.820Z,56
2018-09-12T04:38:49.491Z,64
2018-09-12T04:39:50.164Z,76
2018-09-12T04:40:50.841Z,84
2018-09-12T04:41:51.514Z,96
2018-09-12T04:42:52.251Z,112
2018-09-12T04:43:52.911Z,120
2018-09-12T04:44:53.587Z,136
2018-09-12T04:45:54.293Z,152
2018-09-12T04:46:54.984Z,164
2018-09-12T04:47:55.660Z,180
2018-09-12T04:48:56.337Z,200
2018-09-12T04:49:57.012Z,216
2018-09-12T04:50:57.689Z,236
2018-09-12T04:51:58.377Z,252
2018-09-12T04:52:59.089Z,272
2018-09-12T04:53:59.764Z,288
2018-09-12T04:55:00.437Z,312
2018-09-12T04:56:01.117Z,332
2018-09-12T04:57:01.794Z,352
2018-09-12T04:58:02.515Z,372
2018-09-12T04:59:03.192Z,392
2018-09-12T05:00:03.866Z,416
2018-09-12T05:01:04.544Z,436
2018-09-12T05:02:05.221Z,464
2018-09-12T05:03:05.943Z,480
2018-09-12T05:04:06.620Z,504
2018-09-12T05:05:07.299Z,528
2018-09-12T05:06:07.975Z,548
2018-09-12T05:07:08.651Z,572
2018-09-12T05:08:09.329Z,592
2018-09-12T05:09:10.007Z,612
2018-09-12T05:10:10.699Z,632
2018-09-12T05:11:11.396Z,652
2018-09-12T05:12:12.072Z,676
2018-09-12T05:13:12.749Z,696
2018-09-12T05:14:13.427Z,716
2018-09-12T05:15:14.103Z,740
2018-09-12T05:16:14.823Z,756
2018-09-12T05:17:15.503Z,784
2018-09-12T05:18:16.182Z,804
2018-09-12T05:19:16.856Z,828
2018-09-12T05:20:17.534Z,848
2018-09-12T05:21:18.254Z,864
2018-09-12T05:22:18.930Z,884
2018-09-12T05:23:19.610Z,904
2018-09-12T05:24:20.330Z,924
2018-09-12T05:25:21.007Z,940
2018-09-12T05:26:21.682Z,960
2018-09-12T05:27:22.360Z,976
2018-09-12T05:28:23.057Z,992
2018-09-12T05:29:23.761Z,1012
2018-09-12T05:30:24.443Z,1032
2018-09-12T05:31:25.122Z,1044
2018-09-12T05:32:25.841Z,1064
2018-09-12T05:33:26.520Z,1084
2018-09-12T05:34:27.199Z,1104
2018-09-12T05:35:27.876Z,1120
2018-09-12T05:36:28.634Z,1136
2018-09-12T05:37:29.235Z,1148
2018-09-12T05:38:29.960Z,1164
2018-09-12T05:39:30.636Z,1184
2018-09-12T05:40:31.314Z,1196
2018-09-12T05:41:31.993Z,1212
2018-09-12T05:42:32.671Z,1232
2018-09-12T05:43:33.350Z,1248
2018-09-12T05:44:34.029Z,1260
2018-09-12T05:45:34.707Z,1280
2018-09-12T05:46:35.386Z,1288
2018-09-12T05:47:36.064Z,1300
2018-09-12T05:48:36.743Z,1312
2018-09-12T05:49:37.422Z,1324
2018-09-12T05:50:38.101Z,1336
2018-09-12T05:51:38.781Z,1348
2018-09-12T05:52:39.459Z,1360
2018-09-12T05:53:40.136Z,1372
2018-09-12T05:54:40.814Z,1388
2018-09-12T05:55:41.491Z,1400
2018-09-12T05:56:42.169Z,1416
2018-09-12T05:57:42.848Z,1428
2018-09-12T05:58:43.527Z,1448
2018-09-12T05:59:44.241Z,1456
2018-09-12T06:00:44.930Z,1468
2018-09-12T06:01:45.609Z,1484
2018-09-12T06:02:46.315Z,1496
2018-09-12T06:03:47.011Z,1512
2018-09-12T06:04:47.733Z,1520
2018-09-12T06:05:48.413Z,1536
2018-09-12T06:06:49.120Z,1548
2018-09-12T06:07:49.974Z,1560
2018-09-12T06:08:50.696Z,1572
2018-09-12T06:09:51.725Z,1588
2018-09-12T06:10:52.340Z,1600
2018-09-12T06:11:53.021Z,1616
2018-09-12T06:12:53.698Z,1628
2018-09-12T06:13:54.435Z,1636
2018-09-12T06:14:55.055Z,1652
2018-09-12T06:15:55.733Z,1664
2018-09-12T06:16:56.412Z,1676
2018-09-12T06:17:57.093Z,1688
2018-09-12T06:18:57.769Z,1704
2018-09-12T06:19:58.450Z,1712
2018-09-12T06:20:59.129Z,1724
2018-09-12T06:21:59.809Z,1736
2018-09-12T06:23:00.486Z,1748
2018-09-12T06:24:01.207Z,1760
2018-09-12T06:25:01.892Z,1780
2018-09-12T06:26:02.564Z,1788
2018-09-12T06:27:03.244Z,1804
2018-09-12T06:28:03.923Z,1816
2018-09-12T06:29:04.601Z,1832
2018-09-12T06:30:05.283Z,1852
2018-09-12T06:31:05.960Z,1864
2018-09-12T06:32:06.639Z,1880
2018-09-12T06:33:07.364Z,1896
2018-09-12T06:34:08.047Z,1916
2018-09-12T06:35:08.722Z,1932
2018-09-12T06:36:09.403Z,1952
2018-09-12T06:37:10.081Z,1968
2018-09-12T06:38:10.769Z,1984
2018-09-12T06:39:11.461Z,2000
2018-09-12T06:40:12.117Z,2016
2018-09-12T06:41:12.800Z,2032
2018-09-12T06:42:13.538Z,2044
2018-09-12T06:43:14.242Z,2060
2018-09-12T06:44:15.005Z,2072
2018-09-12T06:45:15.691Z,2088
2018-09-12T06:46:16.412Z,2108
2018-09-12T06:47:17.091Z,2120
2018-09-12T06:48:17.770Z,2136
2018-09-12T06:49:18.452Z,2152
2018-09-12T06:50:19.129Z,2176
2018-09-12T06:51:19.809Z,2196
2018-09-12T06:52:20.497Z,2220
2018-09-12T06:53:21.170Z,2244
2018-09-12T06:54:21.848Z,2276
2018-09-12T06:55:22.542Z,2308
2018-09-12T06:56:23.289Z,2340
2018-09-12T06:57:23.976Z,2380
2018-09-12T06:58:24.657Z,2424
2018-09-12T06:59:25.338Z,2460
2018-09-12T07:00:26.120Z,2500
2018-09-12T07:01:26.735Z,2556
2018-09-12T07:02:27.414Z,2608
2018-09-12T07:03:28.095Z,2668
2018-09-12T07:04:28.774Z,2724
2018-09-12T07:05:29.455Z,2764
2018-09-12T07:06:30.182Z,2780
2018-09-12T07:07:30.874Z,2768
2018-09-12T07:08:31.537Z,2732
2018-09-12T07:09:32.218Z,2772
2018-09-12T07:10:32.910Z,2832
2018-09-12T07:11:33.623Z,4060
2018-09-12T07:12:34.348Z,8312
2018-09-12T07:13:35.027Z,8800
2018-09-12T07:14:35.709Z,9356
2018-09-12T07:15:36.391Z,8984
2018-09-12T07:16:37.109Z,8380
2018-09-12T07:17:37.797Z,7924
2018-09-12T07:18:38.522Z,7560
2018-09-12T07:19:39.203Z,7280
2018-09-12T07:20:39.884Z,7052
2018-09-12T07:21:40.566Z,6828
2018-09-12T07:22:41.247Z,6644
2018-09-12T07:23:41.929Z,6412
2018-09-12T07:24:42.614Z,6212
2018-09-12T07:25:43.293Z,6044
2018-09-12T07:26:43.976Z,5928
2018-09-12T07:27:44.746Z,5816
2018-09-12T07:28:45.341Z,5728
2018-09-12T07:29:46.025Z,5652
2018-09-12T07:30:46.716Z,5584
2018-09-12T07:31:47.437Z,5516
2018-09-12T07:32:48.120Z,5460
2018-09-12T07:33:48.804Z,5428
2018-09-12T07:34:49.489Z,5368
2018-09-12T07:35:50.173Z,5272
2018-09-12T07:36:50.901Z,5212
2018-09-12T07:37:51.589Z,5144
2018-09-12T07:38:52.272Z,5072
2018-09-12T07:39:52.956Z,5008
2018-09-12T07:40:53.640Z,4952
2018-09-12T07:41:54.326Z,4908
2018-09-12T07:42:55.013Z,4872
2018-09-12T07:43:55.696Z,4848
2018-09-12T07:44:56.383Z,4820
2018-09-12T07:45:57.069Z,4776
2018-09-12T07:46:57.757Z,4720
2018-09-12T07:47:58.443Z,4684
2018-09-12T07:48:59.229Z,4656
2018-09-12T07:49:59.894Z,4612
2018-09-12T07:51:00.583Z,4584
2018-09-12T07:52:01.270Z,4560
2018-09-12T07:53:01.956Z,4620
2018-09-12T07:54:02.644Z,4672
2018-09-12T07:55:03.333Z,4736
2018-09-12T07:56:04.111Z,4724
2018-09-12T07:57:04.707Z,4656
2018-09-12T07:58:05.399Z,4632
2018-09-12T07:59:06.082Z,4624
2018-09-12T08:00:06.917Z,4612
2018-09-12T08:01:07.504Z,4612
2018-09-12T08:02:08.238Z,4616
2018-09-12T08:03:08.927Z,4620
2018-09-12T08:04:09.615Z,4616
2018-09-12T08:05:10.369Z,4592
2018-09-12T08:06:11.032Z,4564
2018-09-12T08:07:11.721Z,4532
2018-09-12T08:08:12.409Z,4484
2018-09-12T08:09:13.106Z,4440
2018-09-12T08:10:13.831Z,4416
2018-09-12T08:11:14.518Z,4392
2018-09-12T08:12:15.308Z,4376
2018-09-12T08:13:15.932Z,4352
2018-09-12T08:14:16.619Z,4324
2018-09-12T08:15:17.311Z,4308
2018-09-12T08:16:18.000Z,4268
2018-09-12T08:17:18.688Z,4236
2018-09-12T08:18:19.378Z,4184
2018-09-12T08:19:20.067Z,4140
2018-09-12T08:20:20.755Z,4120
2018-09-12T08:21:21.444Z,4084
2018-09-12T08:22:22.137Z,4048
2018-09-12T08:23:22.824Z,4000
2018-09-12T08:24:23.513Z,3968
2018-09-12T08:25:24.205Z,3920
2018-09-12T08:26:24.936Z,3900
2018-09-12T08:27:25.620Z,3876
2018-09-12T08:28:26.313Z,3864
2018-09-12T08:29:27.067Z,3852
2018-09-12T08:30:27.779Z,3844
2018-09-12T08:31:28.468Z,3820
2018-09-12T08:32:29.161Z,3816
2018-09-12T08:33:29.890Z,3780
2018-09-12T08:34:30.579Z,3780
2018-09-12T08:35:31.268Z,3756
2018-09-12T08:36:32.017Z,3740
2018-09-12T08:37:32.650Z,3720
2018-09-12T08:38:33.334Z,3728
2018-09-12T08:39:34.025Z,3704
2018-09-12T08:40:34.717Z,3684
2018-09-12T08:41:35.454Z,3648
2018-09-12T08:42:36.217Z,3624
2018-09-12T08:43:36.903Z,3636
2018-09-12T08:44:37.603Z,3596
2018-09-12T08:45:38.292Z,3600
2018-09-12T08:46:38.981Z,3616
2018-09-12T08:47:39.712Z,3572
2018-09-12T08:48:40.395Z,3556
2018-09-12T08:49:41.085Z,3540
2018-09-12T08:50:41.773Z,3536
2018-09-12T08:51:42.465Z,3532
2018-09-12T08:52:43.153Z,3532
2018-09-12T08:53:43.841Z,3540
2018-09-12T08:54:44.531Z,3524
2018-09-12T08:55:45.220Z,3516
2018-09-12T08:56:45.922Z,3516
2018-09-12T08:57:46.602Z,3504
2018-09-12T08:58:47.288Z,3496
2018-09-12T08:59:47.981Z,3496
2018-09-12T09:00:48.715Z,3496
2018-09-12T09:01:49.400Z,3488
2018-09-12T09:02:50.110Z,3492
2018-09-12T09:03:50.827Z,3476
2018-09-12T09:04:51.555Z,3484
2018-09-12T09:05:52.242Z,3460
2018-09-12T09:06:52.930Z,3464
2018-09-12T09:07:53.620Z,3472
2018-09-12T09:08:54.308Z,3472
2018-09-12T09:09:55.001Z,3448
2018-09-12T09:10:55.730Z,3432
2018-09-12T09:11:56.419Z,3432
2018-09-12T09:12:57.109Z,3444
2018-09-12T09:13:57.797Z,3440
2018-09-12T09:14:58.485Z,3404
2018-09-12T09:15:59.174Z,3408
2018-09-12T09:16:59.863Z,3428
2018-09-12T09:18:00.554Z,3408
2018-09-12T09:19:01.241Z,3396
2018-09-12T09:20:01.933Z,3380
2018-09-12T09:21:02.620Z,3396
2018-09-12T09:22:03.308Z,3400
2018-09-12T09:23:03.996Z,3388
2018-09-12T09:24:04.685Z,3388
2018-09-12T09:25:05.401Z,3388
2018-09-12T09:26:06.107Z,3372
2018-09-12T09:27:06.796Z,3376
2018-09-12T09:28:07.535Z,3396
2018-09-12T09:29:08.224Z,3380
2018-09-12T09:30:08.913Z,3376
2018-09-12T09:31:09.603Z,3424
2018-09-12T09:32:10.324Z,3376
2018-09-12T09:33:11.104Z,3376
2018-09-12T09:34:11.804Z,3368
2018-09-12T09:35:12.549Z,3376
2018-09-12T09:36:13.184Z,3384
2018-09-12T09:37:13.899Z,3388
2018-09-12T09:38:14.607Z,3388
2018-09-12T09:39:15.295Z,3392
2018-09-12T09:40:15.982Z,3400
2018-09-12T09:41:16.716Z,3404
2018-09-12T09:42:17.404Z,3400
2018-09-12T09:43:18.092Z,3392
2018-09-12T09:44:18.781Z,3388
2018-09-12T09:45:19.470Z,3392
2018-09-12T09:46:20.159Z,3396
2018-09-12T09:47:20.846Z,3396
2018-09-12T09:48:21.544Z,3396
2018-09-12T09:49:22.224Z,3400
2018-09-12T09:50:22.909Z,3416
2018-09-12T09:51:23.598Z,3396
2018-09-12T09:52:24.285Z,3392
2018-09-12T09:53:24.974Z,3388
2018-09-12T09:54:25.662Z,3404
2018-09-12T09:55:26.350Z,3380
2018-09-12T09:56:27.039Z,3384
2018-09-12T09:57:27.728Z,3380
2018-09-12T09:58:28.417Z,3396
2018-09-12T09:59:29.105Z,3416
2018-09-12T10:00:29.863Z,3372
2018-09-12T10:01:30.519Z,3400
2018-09-12T10:02:31.207Z,3392
2018-09-12T10:03:31.896Z,3364
2018-09-12T10:04:32.584Z,3300
2018-09-12T10:05:33.272Z,3280
2018-09-12T10:06:33.958Z,3288
2018-09-12T10:07:34.645Z,3292
2018-09-12T10:08:35.334Z,3288
2018-09-12T10:09:36.023Z,3296
2018-09-12T10:10:36.753Z,3284
2018-09-12T10:11:37.443Z,3300
2018-09-12T10:12:38.174Z,3316
2018-09-12T10:13:38.861Z,3304
2018-09-12T10:14:39.548Z,3324
2018-09-12T10:15:40.236Z,3376
2018-09-12T10:16:40.924Z,3364
2018-09-12T10:17:41.610Z,3388
2018-09-12T10:18:42.298Z,3392
2018-09-12T10:19:42.985Z,3368
2018-09-12T10:20:43.671Z,3400
2018-09-12T10:21:44.359Z,3368
2018-09-12T10:22:45.044Z,3376
2018-09-12T10:23:45.732Z,3360
2018-09-12T10:24:46.420Z,3376
2018-09-12T10:25:47.144Z,3384
2018-09-12T10:26:48.187Z,3392
2018-09-12T10:27:48.809Z,3404
2018-09-12T10:28:49.541Z,3404
2018-09-12T10:29:50.231Z,3396
2018-09-12T10:30:50.960Z,3396
2018-09-12T10:31:51.652Z,3404
2018-09-12T10:32:52.377Z,3412
2018-09-12T10:33:53.064Z,3416
2018-09-12T10:34:53.750Z,3436
2018-09-12T10:35:54.437Z,3424
2018-09-12T10:36:55.123Z,3452
2018-09-12T10:37:55.809Z,3464
2018-09-12T10:38:56.496Z,3464
2018-09-12T10:39:57.183Z,3456
2018-09-12T10:40:57.922Z,3460
2018-09-12T10:41:58.556Z,3452
2018-09-12T10:42:59.242Z,3492
2018-09-12T10:43:59.971Z,3488
2018-09-12T10:45:00.660Z,3484
2018-09-12T10:46:01.347Z,3532
2018-09-12T10:47:02.080Z,3552
2018-09-12T10:48:02.760Z,3556
2018-09-12T10:49:03.446Z,3540
2018-09-12T10:50:04.144Z,3548
2018-09-12T10:51:04.862Z,3572
2018-09-12T10:52:05.575Z,3576
2018-09-12T10:53:06.277Z,3572
2018-09-12T10:54:06.963Z,3568
2018-09-12T10:55:07.652Z,3568
2018-09-12T10:56:08.336Z,3576
2018-09-12T10:57:09.021Z,3592
2018-09-12T10:58:09.706Z,3592
2018-09-12T10:59:10.424Z,3620
2018-09-12T11:00:11.078Z,3660
2018-09-12T11:01:11.763Z,3656
2018-09-12T11:02:12.449Z,3668
2018-09-12T11:03:13.133Z,3672
2018-09-12T11:04:13.854Z,3684
2018-09-12T11:05:14.505Z,3696
2018-09-12T11:06:15.192Z,3688
2018-09-12T11:07:15.902Z,3688
2018-09-12T11:08:16.607Z,3680
2018-09-12T11:09:17.336Z,3688
2018-09-12T11:10:18.023Z,3724
2018-09-12T11:11:18.708Z,3708
2018-09-12T11:12:19.392Z,3720
2018-09-12T11:13:20.080Z,3728
2018-09-12T11:14:20.808Z,3744
2018-09-12T11:15:21.587Z,3744
2018-09-12T11:16:22.202Z,3772
2018-09-12T11:17:22.911Z,3720
2018-09-12T11:18:23.640Z,3752
2018-09-12T11:19:24.324Z,3776
2018-09-12T11:20:25.012Z,3768
2018-09-12T11:21:25.697Z,3764
2018-09-12T11:22:26.386Z,3780
2018-09-12T11:23:27.075Z,3768
2018-09-12T11:24:27.753Z,3768
2018-09-12T11:25:28.438Z,3772
2018-09-12T11:26:29.125Z,3752
2018-09-12T11:27:29.810Z,3788
2018-09-12T11:28:30.494Z,3788
2018-09-12T11:29:31.180Z,3784
2018-09-12T11:30:31.867Z,3784
2018-09-12T11:31:32.552Z,3824
2018-09-12T11:32:33.237Z,3824
2018-09-12T11:33:33.921Z,3840
2018-09-12T11:34:34.609Z,3824
2018-09-12T11:35:35.295Z,3856
2018-09-12T11:36:35.980Z,3844
2018-09-12T11:37:36.666Z,3864
2018-09-12T11:38:37.353Z,3868
2018-09-12T11:39:38.038Z,3844
2018-09-12T11:40:38.731Z,3844
2018-09-12T11:41:39.455Z,3884
2018-09-12T11:42:40.142Z,3876
2018-09-12T11:43:40.870Z,3916
2018-09-12T11:44:41.557Z,3876
2018-09-12T11:45:42.244Z,3896
2018-09-12T11:46:42.929Z,3908
2018-09-12T11:47:43.615Z,3968
2018-09-12T11:48:44.304Z,3956
2018-09-12T11:49:45.032Z,3984
2018-09-12T11:50:45.719Z,3992
2018-09-12T11:51:46.405Z,4004
2018-09-12T11:52:47.091Z,4004
2018-09-12T11:53:47.777Z,4008
2018-09-12T11:54:48.463Z,3992
2018-09-12T11:55:49.148Z,4004
2018-09-12T11:56:49.835Z,4024
2018-09-12T11:57:50.565Z,4024
2018-09-12T11:58:51.250Z,4036
2018-09-12T11:59:51.936Z,4068
2018-09-12T12:00:52.622Z,4064
2018-09-12T12:01:53.307Z,4076
2018-09-12T12:02:53.993Z,4096
2018-09-12T12:03:54.680Z,4120
2018-09-12T12:04:55.364Z,4104
2018-09-12T12:05:56.059Z,4092
2018-09-12T12:06:56.738Z,4100
2018-09-12T12:07:57.426Z,4104
2018-09-12T12:08:58.161Z,4084
2018-09-12T12:09:58.887Z,4120
2018-09-12T12:10:59.626Z,4128
2018-09-12T12:12:00.310Z,4116
2018-09-12T12:13:00.997Z,4124
2018-09-12T12:14:01.726Z,4176
2018-09-12T12:15:02.410Z,4168
2018-09-12T12:16:03.096Z,4240
2018-09-12T12:17:03.784Z,4684
2018-09-12T12:18:04.515Z,4760
2018-09-12T12:19:05.214Z,4876
2018-09-12T12:20:05.928Z,8156
2018-09-12T12:21:06.614Z,8340
2018-09-12T12:22:07.301Z,6108
2018-09-12T12:23:08.000Z,4588
2018-09-12T12:24:08.670Z,4472
2018-09-12T12:25:09.358Z,4388
2018-09-12T12:26:10.045Z,4488
2018-09-12T12:27:10.728Z,4492
2018-09-12T12:28:11.413Z,4752
2018-09-12T12:29:12.098Z,5068
2018-09-12T12:30:12.784Z,4596
2018-09-12T12:31:13.469Z,4280
2018-09-12T12:32:14.184Z,4296
2018-09-12T12:33:14.886Z,4292
2018-09-12T12:34:15.572Z,4316
2018-09-12T12:35:16.319Z,4320
2018-09-12T12:36:16.945Z,4340
2018-09-12T12:37:17.630Z,4328
2018-09-12T12:38:18.317Z,4308
2018-09-12T12:39:19.002Z,4316
2018-09-12T12:40:19.687Z,4356
2018-09-12T12:41:20.419Z,4348
2018-09-12T12:42:21.059Z,4344
2018-09-12T12:43:21.746Z,4340
2018-09-12T12:44:22.431Z,4328
2018-09-12T12:45:23.119Z,4364
2018-09-12T12:46:23.804Z,4352
2018-09-12T12:47:24.489Z,4368
2018-09-12T12:48:25.176Z,4368
2018-09-12T12:49:25.860Z,4412
2018-09-12T12:50:26.546Z,4420
2018-09-12T12:51:27.232Z,4416
2018-09-12T12:52:27.917Z,4420
2018-09-12T12:53:28.605Z,4424
2018-09-12T12:54:29.291Z,4460
2018-09-12T12:55:29.987Z,4524
2018-09-12T12:56:30.708Z,4520
2018-09-12T12:57:31.393Z,4508
2018-09-12T12:58:32.078Z,4500
2018-09-12T12:59:32.763Z,4468
2018-09-12T13:00:33.449Z,4460
2018-09-12T13:01:34.133Z,4448
2018-09-12T13:02:34.819Z,4484
2018-09-12T13:03:35.507Z,4500
2018-09-12T13:04:36.237Z,4512
2018-09-12T13:05:36.971Z,4488
2018-09-12T13:06:37.616Z,4508
2018-09-12T13:07:38.293Z,4552
2018-09-12T13:08:38.980Z,4572
2018-09-12T13:09:39.666Z,4576
2018-09-12T13:10:40.351Z,4584
2018-09-12T13:11:41.039Z,4580
2018-09-12T13:12:41.724Z,4608
2018-09-12T13:13:42.410Z,4600
2018-09-12T13:14:43.159Z,4568
2018-09-12T13:15:43.820Z,4572
2018-09-12T13:16:44.509Z,4608
2018-09-12T13:17:45.192Z,4584
2018-09-12T13:18:45.879Z,4576
2018-09-12T13:19:46.563Z,4632
2018-09-12T13:20:47.250Z,4620
2018-09-12T13:21:48.128Z,4612
2018-09-12T13:22:48.623Z,4652
2018-09-12T13:23:49.310Z,4648
2018-09-12T13:24:49.996Z,4644
2018-09-12T13:25:50.682Z,4648
2018-09-12T13:26:51.369Z,4524
2018-09-12T13:27:52.100Z,4604
2018-09-12T13:28:52.766Z,4704
2018-09-12T13:29:53.474Z,4748
2018-09-12T13:30:54.159Z,4644
2018-09-12T13:31:54.844Z,4676
2018-09-12T13:32:55.574Z,4652
2018-09-12T13:33:56.260Z,4644
2018-09-12T13:34:56.976Z,4672
2018-09-12T13:35:57.676Z,4716
2018-09-12T13:36:58.362Z,4680
2018-09-12T13:37:59.048Z,4704
2018-09-12T13:38:59.734Z,4828
2018-09-12T13:40:00.420Z,4796
2018-09-12T13:41:01.105Z,4652
2018-09-12T13:42:01.795Z,4672
2018-09-12T13:43:02.482Z,4748
2018-09-12T13:44:03.163Z,4744
2018-09-12T13:45:03.850Z,4760
2018-09-12T13:46:04.536Z,4976
2018-09-12T13:47:05.237Z,4988
2018-09-12T13:48:05.953Z,4828
2018-09-12T13:49:06.734Z,4716
2018-09-12T13:50:07.422Z,4672
2018-09-12T13:51:08.108Z,4652
2018-09-12T13:52:08.811Z,4600
2018-09-12T13:53:09.524Z,4680
2018-09-12T13:54:10.260Z,4676
2018-09-12T13:55:10.948Z,4612
2018-09-12T13:56:11.663Z,4556
2018-09-12T13:57:12.365Z,4532
2018-09-12T13:58:13.054Z,4576
2018-09-12T13:59:13.739Z,4628